createdAt,value
2023-01-23T00:02:51.561Z,3.08
2023-01-23T00:07:53.776Z,3.05
2023-01-23T00:12:58.025Z,2.75
2023-01-23T00:18:00.218Z,3.70
2023-01-23T00:23:02.354Z,3.95
2023-01-23T00:28:04.875Z,3.00
2023-01-23T00:33:07.098Z,2.53
2023-01-23T00:38:09.423Z,3.70
2023-01-23T00:43:11.778Z,2.35
2023-01-23T00:48:13.996Z,3.55
2023-01-23T00:53:16.563Z,2.88
2023-01-23T00:58:18.961Z,2.70
2023-01-23T01:03:21.278Z,2.78
2023-01-23T01:08:23.609Z,2.78
2023-01-23T01:13:26.459Z,2.60
2023-01-23T01:18:29.318Z,2.85
2023-01-23T01:23:31.558Z,3.03
2023-01-23T01:28:35.573Z,3.38
2023-01-23T01:33:39.295Z,2.42
2023-01-23T01:38:41.901Z,2.92
2023-01-23T01:43:44.939Z,3.38
2023-01-23T01:49:07.130Z,3.53
2023-01-23T01:54:11.786Z,2.78
2023-01-23T01:59:14.666Z,3.35
2023-01-23T02:04:16.834Z,3.78
2023-01-23T02:09:26.274Z,3.92
2023-01-23T02:14:28.585Z,2.55
2023-01-23T02:19:55.793Z,3.00
2023-01-23T02:25:17.483Z,2.90
2023-01-23T02:30:21.927Z,3.63
2023-01-23T02:35:29.634Z,4.03
2023-01-23T02:40:39.979Z,2.80
2023-01-23T02:45:42.571Z,2.80
2023-01-23T02:50:46.772Z,2.72
2023-01-23T02:55:49.226Z,4.38
2023-01-23T03:00:51.647Z,3.67
2023-01-23T03:05:55.934Z,3.53
2023-01-23T03:10:58.207Z,4.05
2023-01-23T03:16:00.498Z,5.28
2023-01-23T03:21:06.936Z,3.50
2023-01-23T03:26:09.087Z,4.45
2023-01-23T03:31:13.154Z,2.83
2023-01-23T03:36:15.408Z,2.47
2023-01-23T03:41:26.622Z,5.10
2023-01-23T03:46:28.837Z,4.00
2023-01-23T03:51:31.068Z,3.67
2023-01-23T03:56:33.429Z,3.53
2023-01-23T04:01:35.827Z,3.67
2023-01-23T04:06:38.000Z,3.17
2023-01-23T04:11:40.325Z,3.17
2023-01-23T04:16:42.483Z,3.28
2023-01-23T04:21:44.646Z,4.90
2023-01-23T04:26:46.830Z,3.22
2023-01-23T04:31:49.116Z,3.70
2023-01-23T04:36:51.403Z,3.17
2023-01-23T04:41:53.476Z,3.60
2023-01-23T04:46:55.654Z,3.17
2023-01-23T04:51:57.937Z,3.65
2023-01-23T04:57:00.211Z,3.85
2023-01-23T05:02:02.794Z,4.18
2023-01-23T05:07:05.063Z,3.20
2023-01-23T05:12:07.851Z,3.78
2023-01-23T05:17:10.180Z,4.18
2023-01-23T05:22:12.391Z,4.18
2023-01-23T05:27:14.999Z,3.83
2023-01-23T05:32:17.277Z,4.00
2023-01-23T05:37:20.759Z,5.95
2023-01-23T05:42:23.129Z,8.15
2023-01-23T05:47:25.421Z,4.95
2023-01-23T05:52:28.257Z,6.45
2023-01-23T05:57:30.372Z,7.00
2023-01-23T06:02:32.628Z,4.60
2023-01-23T06:07:34.824Z,4.43
2023-01-23T06:12:37.011Z,4.20
2023-01-23T06:17:39.179Z,5.32
2023-01-23T06:22:41.417Z,5.40
2023-01-23T06:27:43.709Z,5.13
2023-01-23T06:32:45.869Z,7.03
2023-01-23T06:37:48.374Z,6.93
2023-01-23T06:42:51.491Z,8.38
2023-01-23T06:47:53.922Z,8.35
2023-01-23T06:52:56.113Z,8.25
2023-01-23T06:57:58.281Z,9.35
2023-01-23T07:03:03.986Z,7.93
2023-01-23T07:08:07.375Z,9.57
2023-01-23T07:13:11.343Z,6.20
2023-01-23T07:18:13.671Z,10.18
2023-01-23T07:23:16.022Z,10.18
2023-01-23T07:28:18.242Z,8.52
2023-01-23T07:33:20.461Z,9.02
2023-01-23T07:38:26.256Z,8.48
2023-01-23T07:43:28.440Z,8.50
2023-01-23T07:48:30.807Z,8.52
2023-01-23T07:53:33.540Z,7.95
2023-01-23T07:58:35.749Z,6.40
2023-01-23T08:03:38.015Z,5.85
2023-01-23T08:08:40.655Z,3.90
2023-01-23T08:13:42.946Z,2.60
2023-01-23T08:18:45.288Z,3.13
2023-01-23T08:23:47.613Z,3.20
2023-01-23T08:28:49.881Z,3.13
2023-01-23T08:33:52.070Z,4.10
2023-01-23T08:38:54.277Z,4.10
2023-01-23T08:43:58.630Z,3.17
2023-01-23T08:49:00.774Z,2.97
2023-01-23T08:54:03.312Z,3.17
2023-01-23T08:59:05.631Z,3.38
2023-01-23T09:04:07.933Z,2.38
2023-01-23T09:09:10.127Z,2.75
2023-01-23T09:14:12.363Z,2.88
2023-01-23T09:19:17.308Z,2.95
2023-01-23T09:24:25.457Z,2.78
2023-01-23T09:29:27.669Z,2.88
2023-01-23T09:34:30.471Z,3.25
2023-01-23T09:39:32.662Z,3.95
2023-01-23T09:44:37.931Z,4.47
2023-01-23T09:49:42.525Z,2.70
2023-01-23T09:55:02.982Z,2.83
2023-01-23T10:00:34.763Z,4.00
2023-01-23T10:05:44.828Z,4.38
2023-01-23T10:10:54.397Z,3.08
2023-01-23T10:16:49.979Z,3.38
2023-01-23T10:22:39.251Z,2.92
2023-01-23T10:28:49.082Z,4.60
2023-01-23T10:34:19.253Z,3.03
2023-01-23T10:39:39.055Z,2.97
2023-01-23T10:44:41.334Z,3.03
2023-01-23T10:49:46.795Z,3.47
2023-01-23T10:54:49.004Z,2.75
2023-01-23T11:00:08.188Z,3.38
2023-01-23T11:05:52.954Z,4.30
2023-01-23T11:11:17.082Z,3.97
2023-01-23T11:16:22.770Z,2.47
2023-01-23T11:21:30.636Z,2.67
2023-01-23T11:26:34.565Z,3.03
2023-01-23T11:31:37.580Z,3.25
2023-01-23T11:37:16.042Z,3.20
2023-01-23T11:42:20.414Z,3.08
2023-01-23T11:47:48.263Z,3.50
2023-01-23T11:53:06.694Z,3.45
2023-01-23T11:58:18.157Z,3.90
2023-01-23T12:03:40.036Z,3.35
2023-01-23T12:09:17.058Z,3.58
2023-01-23T12:14:46.587Z,3.75
2023-01-23T12:20:01.085Z,2.57
2023-01-23T12:25:22.490Z,4.22
2023-01-23T12:30:47.868Z,4.15
2023-01-23T12:36:18.233Z,4.47
2023-01-23T12:41:28.175Z,4.03
2023-01-23T12:47:07.224Z,4.10
2023-01-23T12:52:21.827Z,3.35
2023-01-23T12:58:07.970Z,3.95
2023-01-23T13:03:47.008Z,3.13
2023-01-23T13:09:19.170Z,5.20
2023-01-23T13:14:29.101Z,5.00
2023-01-23T13:20:00.916Z,4.63
2023-01-23T13:25:13.244Z,5.32
2023-01-23T13:30:24.580Z,5.07
2023-01-23T13:35:45.236Z,5.45
2023-01-23T13:41:10.739Z,7.00
2023-01-23T13:46:38.778Z,6.15
2023-01-23T14:24:27.018Z,4.47
2023-01-23T14:29:29.315Z,5.72
2023-01-23T14:34:40.397Z,6.10
2023-01-23T14:39:53.126Z,4.80
2023-01-23T14:44:59.426Z,4.85
2023-01-23T14:50:03.286Z,3.78
2023-01-23T14:55:29.260Z,3.85
2023-01-23T15:00:34.524Z,4.10
2023-01-23T15:05:39.854Z,3.97
2023-01-23T15:10:46.932Z,3.83
2023-01-23T15:16:04.872Z,3.53
2023-01-23T15:21:09.058Z,4.00
2023-01-23T15:26:13.074Z,6.60
2023-01-23T15:31:41.051Z,6.60
2023-01-23T15:36:50.426Z,4.78
2023-01-23T15:41:56.395Z,5.82
2023-01-23T15:47:03.661Z,4.68
2023-01-23T15:52:25.008Z,5.45
2023-01-23T15:57:27.867Z,5.82
2023-01-23T16:02:32.974Z,4.13
2023-01-23T16:07:41.173Z,5.45
2023-01-23T16:12:44.398Z,5.00
2023-01-23T16:17:46.795Z,4.32
2023-01-23T16:23:11.772Z,4.50
2023-01-23T16:28:19.801Z,4.05
2023-01-23T16:33:22.648Z,5.22
2023-01-23T16:38:29.929Z,4.75
2023-01-23T16:43:32.309Z,6.57
2023-01-23T16:48:34.449Z,4.95
2023-01-23T16:53:40.938Z,5.22
2023-01-23T16:58:43.172Z,5.63
2023-01-23T17:03:45.653Z,7.10
2023-01-23T17:08:51.264Z,5.38
2023-01-23T17:14:02.058Z,7.38
2023-01-23T17:19:33.066Z,8.45
2023-01-23T17:24:35.290Z,11.13
2023-01-23T17:29:37.619Z,11.07
2023-01-23T17:34:48.870Z,12.82
2023-01-23T17:39:52.087Z,14.50
2023-01-23T17:44:54.246Z,8.60
2023-01-23T17:49:57.093Z,8.10
2023-01-23T17:54:59.252Z,7.70
2023-01-23T18:00:01.600Z,10.43
2023-01-23T18:05:05.498Z,10.88
2023-01-23T18:10:12.101Z,9.98
2023-01-23T18:15:16.893Z,11.23
2023-01-23T18:20:21.540Z,10.82
2023-01-23T18:25:26.491Z,10.27
2023-01-23T18:30:51.385Z,16.77
2023-01-23T18:36:19.175Z,16.60
2023-01-23T18:41:25.522Z,13.95
2023-01-23T18:46:28.443Z,16.00
2023-01-23T18:51:46.943Z,19.42
2023-01-23T18:57:27.379Z,20.83
2023-01-23T19:02:45.399Z,21.63
2023-01-23T19:07:49.207Z,19.52
2023-01-23T19:13:16.591Z,16.33
2023-01-23T19:18:40.366Z,14.95
2023-01-23T19:23:45.778Z,12.75
2023-01-23T19:28:48.308Z,13.52
2023-01-23T19:33:50.499Z,21.98
2023-01-23T19:38:53.527Z,32.22
2023-01-23T19:43:57.216Z,18.88
2023-01-23T19:49:01.629Z,14.05
2023-01-23T19:54:09.585Z,11.18
2023-01-23T19:59:11.841Z,11.45
2023-01-23T20:04:22.309Z,12.82
2023-01-23T20:09:24.476Z,12.65
2023-01-23T20:14:27.631Z,33.78
2023-01-23T20:19:29.728Z,71.35
2023-01-23T20:24:31.874Z,12.77
2023-01-23T20:29:34.093Z,7.45
2023-01-23T20:34:36.265Z,7.32
2023-01-23T20:39:38.468Z,8.50
2023-01-23T20:44:42.014Z,8.10
2023-01-23T20:49:44.227Z,8.25
2023-01-23T20:54:47.334Z,8.20
2023-01-23T20:59:49.566Z,7.90
2023-01-23T21:04:56.279Z,9.75
2023-01-23T21:09:58.384Z,7.53
2023-01-23T21:15:01.278Z,7.45
2023-01-23T21:20:03.664Z,7.95
2023-01-23T21:25:06.471Z,8.20
2023-01-23T21:30:09.294Z,7.95
2023-01-23T21:35:12.177Z,7.22
2023-01-23T21:40:14.562Z,7.22
2023-01-23T21:45:16.771Z,8.75
2023-01-23T21:50:18.968Z,10.63
2023-01-23T21:55:21.412Z,11.57
2023-01-23T22:00:41.816Z,9.80
2023-01-23T22:05:44.215Z,7.63
2023-01-23T22:10:46.341Z,10.00
2023-01-23T22:15:48.532Z,8.32
2023-01-23T22:21:03.988Z,8.70
2023-01-23T22:26:09.177Z,10.02
2023-01-23T22:31:16.239Z,10.07
2023-01-23T22:36:20.090Z,9.85
2023-01-23T22:41:23.289Z,12.95
2023-01-23T22:46:25.489Z,9.45
2023-01-23T22:51:28.542Z,10.38
2023-01-23T22:56:32.481Z,14.30
2023-01-23T23:01:35.072Z,11.48
2023-01-23T23:06:37.168Z,14.93
2023-01-23T23:11:40.227Z,14.00
2023-01-23T23:16:42.324Z,15.90
2023-01-23T23:21:44.523Z,16.02
2023-01-23T23:26:46.779Z,10.70
2023-01-23T23:31:51.936Z,11.10
2023-01-23T23:36:54.106Z,11.65
2023-01-23T23:41:56.287Z,11.48
2023-01-23T23:46:58.385Z,11.50
2023-01-23T23:52:00.655Z,10.82
2023-01-23T23:57:02.715Z,11.68
